sensor_id;sensor_type;location;lat;lon;timestamp;P1;durP1;ratioP1;P2;durP2;ratioP2
12654;SDS011;6392;44.644;11.448;2023-12-20T00:00:34;10.87;;;6.87;;
12654;SDS011;6392;44.644;11.448;2023-12-20T00:03:02;10.03;;;6.40;;
12654;SDS011;6392;44.644;11.448;2023-12-20T00:05:29;9.33;;;5.90;;
12654;SDS011;6392;44.644;11.448;2023-12-20T00:07:57;9.90;;;6.40;;
12654;SDS011;6392;44.644;11.448;2023-12-20T00:10:24;17.63;;;9.23;;
12654;SDS011;6392;44.644;11.448;2023-12-20T00:12:51;7.93;;;5.37;;
12654;SDS011;6392;44.644;11.448;2023-12-20T00:15:20;9.20;;;6.43;;
12654;SDS011;6392;44.644;11.448;2023-12-20T00:17:47;16.27;;;7.40;;
12654;SDS011;6392;44.644;11.448;2023-12-20T00:20:14;11.73;;;6.93;;
12654;SDS011;6392;44.644;11.448;2023-12-20T00:22:40;14.07;;;6.67;;
12654;SDS011;6392;44.644;11.448;2023-12-20T00:25:07;9.83;;;5.93;;
12654;SDS011;6392;44.644;11.448;2023-12-20T00:27:34;8.87;;;5.83;;
12654;SDS011;6392;44.644;11.448;2023-12-20T00:30:01;10.30;;;5.60;;
12654;SDS011;6392;44.644;11.448;2023-12-20T00:32:30;10.10;;;6.63;;
12654;SDS011;6392;44.644;11.448;2023-12-20T00:34:57;12.47;;;6.67;;
12654;SDS011;6392;44.644;11.448;2023-12-20T00:37:24;11.23;;;6.50;;
12654;SDS011;6392;44.644;11.448;2023-12-20T00:39:51;11.53;;;7.00;;
12654;SDS011;6392;44.644;11.448;2023-12-20T00:42:18;10.87;;;6.80;;
12654;SDS011;6392;44.644;11.448;2023-12-20T00:44:45;13.00;;;6.17;;
12654;SDS011;6392;44.644;11.448;2023-12-20T00:47:12;11.30;;;6.77;;
12654;SDS011;6392;44.644;11.448;2023-12-20T00:49:41;10.77;;;6.80;;
12654;SDS011;6392;44.644;11.448;2023-12-20T00:52:08;11.50;;;5.97;;
12654;SDS011;6392;44.644;11.448;2023-12-20T00:54:35;9.77;;;5.93;;
12654;SDS011;6392;44.644;11.448;2023-12-20T00:57:02;13.70;;;6.80;;
12654;SDS011;6392;44.644;11.448;2023-12-20T00:59:29;10.13;;;6.87;;
12654;SDS011;6392;44.644;11.448;2023-12-20T01:01:56;9.53;;;6.10;;
12654;SDS011;6392;44.644;11.448;2023-12-20T01:04:23;9.17;;;6.40;;
12654;SDS011;6392;44.644;11.448;2023-12-20T01:06:51;10.83;;;6.67;;
12654;SDS011;6392;44.644;11.448;2023-12-20T01:09:18;10.63;;;6.63;;
12654;SDS011;6392;44.644;11.448;2023-12-20T01:11:48;11.73;;;7.07;;
12654;SDS011;6392;44.644;11.448;2023-12-20T01:14:15;11.60;;;5.97;;
12654;SDS011;6392;44.644;11.448;2023-12-20T01:16:41;12.37;;;6.77;;
12654;SDS011;6392;44.644;11.448;2023-12-20T01:19:09;9.57;;;6.30;;
12654;SDS011;6392;44.644;11.448;2023-12-20T01:21:36;12.57;;;6.30;;
12654;SDS011;6392;44.644;11.448;2023-12-20T01:24:04;13.57;;;6.57;;
12654;SDS011;6392;44.644;11.448;2023-12-20T01:26:31;10.40;;;6.57;;
12654;SDS011;6392;44.644;11.448;2023-12-20T01:29:00;11.90;;;6.50;;
12654;SDS011;6392;44.644;11.448;2023-12-20T01:31:27;9.20;;;6.17;;
12654;SDS011;6392;44.644;11.448;2023-12-20T01:33:54;11.00;;;6.53;;
12654;SDS011;6392;44.644;11.448;2023-12-20T01:36:21;9.90;;;6.00;;
12654;SDS011;6392;44.644;11.448;2023-12-20T01:38:48;10.30;;;5.67;;
12654;SDS011;6392;44.644;11.448;2023-12-20T01:41:17;22.00;;;9.37;;
12654;SDS011;6392;44.644;11.448;2023-12-20T01:43:44;17.23;;;7.90;;
12654;SDS011;6392;44.644;11.448;2023-12-20T01:46:11;11.40;;;7.33;;
12654;SDS011;6392;44.644;11.448;2023-12-20T01:48:38;10.10;;;6.63;;
12654;SDS011;6392;44.644;11.448;2023-12-20T01:51:06;9.83;;;6.30;;
12654;SDS011;6392;44.644;11.448;2023-12-20T01:53:33;10.33;;;6.23;;
12654;SDS011;6392;44.644;11.448;2023-12-20T01:56:01;14.63;;;6.30;;
12654;SDS011;6392;44.644;11.448;2023-12-20T01:58:29;10.93;;;7.13;;
12654;SDS011;6392;44.644;11.448;2023-12-20T02:00:57;9.10;;;6.40;;
12654;SDS011;6392;44.644;11.448;2023-12-20T02:03:24;12.07;;;6.63;;
12654;SDS011;6392;44.644;11.448;2023-12-20T02:05:51;7.87;;;5.90;;
12654;SDS011;6392;44.644;11.448;2023-12-20T02:08:19;9.07;;;5.70;;
12654;SDS011;6392;44.644;11.448;2023-12-20T02:10:47;9.47;;;5.87;;
12654;SDS011;6392;44.644;11.448;2023-12-20T02:13:14;9.00;;;6.30;;
12654;SDS011;6392;44.644;11.448;2023-12-20T02:15:42;12.90;;;6.27;;
12654;SDS011;6392;44.644;11.448;2023-12-20T02:18:09;11.47;;;6.53;;
12654;SDS011;6392;44.644;11.448;2023-12-20T02:20:40;10.23;;;6.07;;
12654;SDS011;6392;44.644;11.448;2023-12-20T02:23:08;13.17;;;6.60;;
12654;SDS011;6392;44.644;11.448;2023-12-20T02:25:35;16.13;;;6.97;;
12654;SDS011;6392;44.644;11.448;2023-12-20T02:28:03;9.73;;;6.43;;
12654;SDS011;6392;44.644;11.448;2023-12-20T02:30:31;10.37;;;6.10;;
12654;SDS011;6392;44.644;11.448;2023-12-20T02:32:59;9.87;;;6.47;;
12654;SDS011;6392;44.644;11.448;2023-12-20T02:35:27;10.63;;;6.57;;
12654;SDS011;6392;44.644;11.448;2023-12-20T02:37:54;12.30;;;6.27;;
12654;SDS011;6392;44.644;11.448;2023-12-20T02:40:22;12.03;;;6.90;;
12654;SDS011;6392;44.644;11.448;2023-12-20T02:42:49;11.37;;;6.50;;
12654;SDS011;6392;44.644;11.448;2023-12-20T02:45:16;11.37;;;7.43;;
12654;SDS011;6392;44.644;11.448;2023-12-20T02:47:43;13.57;;;7.23;;
12654;SDS011;6392;44.644;11.448;2023-12-20T02:50:10;10.47;;;6.70;;
12654;SDS011;6392;44.644;11.448;2023-12-20T02:52:37;10.57;;;7.07;;
12654;SDS011;6392;44.644;11.448;2023-12-20T02:55:05;10.37;;;6.27;;
12654;SDS011;6392;44.644;11.448;2023-12-20T02:57:33;11.10;;;6.63;;
12654;SDS011;6392;44.644;11.448;2023-12-20T03:00:01;11.10;;;7.13;;
12654;SDS011;6392;44.644;11.448;2023-12-20T03:02:28;11.40;;;6.43;;
12654;SDS011;6392;44.644;11.448;2023-12-20T03:04:55;13.00;;;7.83;;
12654;SDS011;6392;44.644;11.448;2023-12-20T03:07:25;13.63;;;6.90;;
12654;SDS011;6392;44.644;11.448;2023-12-20T03:09:52;10.27;;;6.47;;
12654;SDS011;6392;44.644;11.448;2023-12-20T03:12:19;10.77;;;7.07;;
12654;SDS011;6392;44.644;11.448;2023-12-20T03:14:47;10.33;;;7.07;;
12654;SDS011;6392;44.644;11.448;2023-12-20T03:17:15;12.63;;;7.53;;
12654;SDS011;6392;44.644;11.448;2023-12-20T03:19:42;10.20;;;7.00;;
12654;SDS011;6392;44.644;11.448;2023-12-20T03:22:09;9.97;;;5.97;;
12654;SDS011;6392;44.644;11.448;2023-12-20T03:24:36;10.63;;;6.80;;
12654;SDS011;6392;44.644;11.448;2023-12-20T03:27:03;11.43;;;6.30;;
12654;SDS011;6392;44.644;11.448;2023-12-20T03:29:30;10.13;;;5.83;;
12654;SDS011;6392;44.644;11.448;2023-12-20T03:31:59;11.43;;;6.63;;
12654;SDS011;6392;44.644;11.448;2023-12-20T03:34:26;9.23;;;6.07;;
12654;SDS011;6392;44.644;11.448;2023-12-20T03:36:54;9.57;;;6.40;;
12654;SDS011;6392;44.644;11.448;2023-12-20T03:39:21;10.87;;;6.63;;
12654;SDS011;6392;44.644;11.448;2023-12-20T03:41:48;11.27;;;5.20;;
12654;SDS011;6392;44.644;11.448;2023-12-20T03:44:15;10.67;;;5.73;;
12654;SDS011;6392;44.644;11.448;2023-12-20T03:46:42;10.90;;;6.30;;
12654;SDS011;6392;44.644;11.448;2023-12-20T03:49:12;10.20;;;6.20;;
12654;SDS011;6392;44.644;11.448;2023-12-20T03:51:39;10.23;;;5.97;;
12654;SDS011;6392;44.644;11.448;2023-12-20T03:54:07;11.13;;;6.03;;
12654;SDS011;6392;44.644;11.448;2023-12-20T03:56:34;8.67;;;5.90;;
12654;SDS011;6392;44.644;11.448;2023-12-20T03:59:01;10.33;;;6.70;;
12654;SDS011;6392;44.644;11.448;2023-12-20T04:01:28;9.93;;;6.10;;
12654;SDS011;6392;44.644;11.448;2023-12-20T04:03:55;9.53;;;6.33;;
12654;SDS011;6392;44.644;11.448;2023-12-20T04:06:23;11.03;;;7.23;;
12654;SDS011;6392;44.644;11.448;2023-12-20T04:08:50;10.63;;;6.80;;
12654;SDS011;6392;44.644;11.448;2023-12-20T04:11:17;11.73;;;6.40;;
12654;SDS011;6392;44.644;11.448;2023-12-20T04:13:44;10.07;;;6.10;;
12654;SDS011;6392;44.644;11.448;2023-12-20T04:16:11;8.90;;;5.77;;
12654;SDS011;6392;44.644;11.448;2023-12-20T04:18:39;12.23;;;6.43;;
12654;SDS011;6392;44.644;11.448;2023-12-20T04:21:06;9.53;;;5.83;;
12654;SDS011;6392;44.644;11.448;2023-12-20T04:23:34;8.33;;;4.97;;
12654;SDS011;6392;44.644;11.448;2023-12-20T04:26:01;8.63;;;5.03;;
12654;SDS011;6392;44.644;11.448;2023-12-20T04:28:28;9.43;;;5.70;;
12654;SDS011;6392;44.644;11.448;2023-12-20T04:30:56;9.67;;;5.87;;
12654;SDS011;6392;44.644;11.448;2023-12-20T04:33:23;11.37;;;5.70;;
12654;SDS011;6392;44.644;11.448;2023-12-20T04:35:50;8.90;;;6.13;;
12654;SDS011;6392;44.644;11.448;2023-12-20T04:38:17;7.47;;;5.50;;
12654;SDS011;6392;44.644;11.448;2023-12-20T04:40:45;6.83;;;5.10;;
12654;SDS011;6392;44.644;11.448;2023-12-20T04:43:13;7.07;;;4.43;;
12654;SDS011;6392;44.644;11.448;2023-12-20T04:45:40;7.60;;;5.03;;
12654;SDS011;6392;44.644;11.448;2023-12-20T04:48:07;8.43;;;4.87;;
12654;SDS011;6392;44.644;11.448;2023-12-20T04:50:34;7.73;;;4.57;;
12654;SDS011;6392;44.644;11.448;2023-12-20T04:53:01;11.13;;;5.23;;
12654;SDS011;6392;44.644;11.448;2023-12-20T04:55:28;7.27;;;4.57;;
12654;SDS011;6392;44.644;11.448;2023-12-20T04:57:57;8.07;;;5.10;;
12654;SDS011;6392;44.644;11.448;2023-12-20T05:00:24;6.40;;;4.40;;
12654;SDS011;6392;44.644;11.448;2023-12-20T05:02:51;6.37;;;4.33;;
12654;SDS011;6392;44.644;11.448;2023-12-20T05:05:18;7.60;;;4.80;;
12654;SDS011;6392;44.644;11.448;2023-12-20T05:07:45;7.80;;;4.67;;
12654;SDS011;6392;44.644;11.448;2023-12-20T05:10:12;7.70;;;4.60;;
12654;SDS011;6392;44.644;11.448;2023-12-20T05:12:39;7.97;;;4.63;;
12654;SDS011;6392;44.644;11.448;2023-12-20T05:15:08;6.83;;;4.73;;
12654;SDS011;6392;44.644;11.448;2023-12-20T05:17:35;9.07;;;4.30;;
12654;SDS011;6392;44.644;11.448;2023-12-20T05:20:03;10.30;;;5.40;;
12654;SDS011;6392;44.644;11.448;2023-12-20T05:22:30;9.43;;;5.17;;
12654;SDS011;6392;44.644;11.448;2023-12-20T05:24:58;8.30;;;4.70;;
12654;SDS011;6392;44.644;11.448;2023-12-20T05:27:25;8.87;;;4.97;;
12654;SDS011;6392;44.644;11.448;2023-12-20T05:29:52;7.63;;;4.90;;
12654;SDS011;6392;44.644;11.448;2023-12-20T05:32:24;6.87;;;4.40;;
12654;SDS011;6392;44.644;11.448;2023-12-20T05:34:51;7.57;;;3.97;;
12654;SDS011;6392;44.644;11.448;2023-12-20T05:37:18;9.17;;;5.07;;
12654;SDS011;6392;44.644;11.448;2023-12-20T05:39:45;7.70;;;4.90;;
12654;SDS011;6392;44.644;11.448;2023-12-20T05:42:12;9.47;;;4.30;;
12654;SDS011;6392;44.644;11.448;2023-12-20T05:44:39;8.10;;;4.67;;
12654;SDS011;6392;44.644;11.448;2023-12-20T05:47:06;9.50;;;5.07;;
12654;SDS011;6392;44.644;11.448;2023-12-20T05:49:35;11.20;;;5.30;;
12654;SDS011;6392;44.644;11.448;2023-12-20T05:52:02;8.23;;;5.10;;
12654;SDS011;6392;44.644;11.448;2023-12-20T05:54:29;7.73;;;4.93;;
12654;SDS011;6392;44.644;11.448;2023-12-20T05:56:56;8.50;;;5.40;;
12654;SDS011;6392;44.644;11.448;2023-12-20T05:59:23;8.30;;;5.17;;
12654;SDS011;6392;44.644;11.448;2023-12-20T06:01:50;9.77;;;5.47;;
12654;SDS011;6392;44.644;11.448;2023-12-20T06:04:18;8.00;;;5.17;;
12654;SDS011;6392;44.644;11.448;2023-12-20T06:06:46;11.57;;;5.17;;
12654;SDS011;6392;44.644;11.448;2023-12-20T06:09:13;6.97;;;4.83;;
12654;SDS011;6392;44.644;11.448;2023-12-20T06:11:41;8.40;;;4.93;;
12654;SDS011;6392;44.644;11.448;2023-12-20T06:14:08;8.03;;;5.13;;
12654;SDS011;6392;44.644;11.448;2023-12-20T06:16:35;8.83;;;5.13;;
12654;SDS011;6392;44.644;11.448;2023-12-20T06:19:02;10.13;;;5.40;;
12654;SDS011;6392;44.644;11.448;2023-12-20T06:21:30;8.57;;;4.97;;
12654;SDS011;6392;44.644;11.448;2023-12-20T06:23:59;7.07;;;4.17;;
12654;SDS011;6392;44.644;11.448;2023-12-20T06:26:26;8.77;;;4.07;;
12654;SDS011;6392;44.644;11.448;2023-12-20T06:28:53;12.27;;;5.20;;
12654;SDS011;6392;44.644;11.448;2023-12-20T06:31:20;8.53;;;5.23;;
12654;SDS011;6392;44.644;11.448;2023-12-20T06:33:47;8.43;;;5.23;;
12654;SDS011;6392;44.644;11.448;2023-12-20T06:36:22;8.60;;;4.60;;
12654;SDS011;6392;44.644;11.448;2023-12-20T06:38:49;12.80;;;5.27;;
12654;SDS011;6392;44.644;11.448;2023-12-20T06:41:18;10.27;;;4.90;;
12654;SDS011;6392;44.644;11.448;2023-12-20T06:43:45;11.87;;;5.70;;
12654;SDS011;6392;44.644;11.448;2023-12-20T06:46:12;10.37;;;6.23;;
12654;SDS011;6392;44.644;11.448;2023-12-20T06:48:39;10.20;;;5.70;;
12654;SDS011;6392;44.644;11.448;2023-12-20T06:51:06;9.53;;;5.40;;
12654;SDS011;6392;44.644;11.448;2023-12-20T06:53:37;11.13;;;5.77;;
12654;SDS011;6392;44.644;11.448;2023-12-20T06:56:04;9.70;;;6.00;;
12654;SDS011;6392;44.644;11.448;2023-12-20T06:58:34;7.60;;;4.90;;
12654;SDS011;6392;44.644;11.448;2023-12-20T07:01:03;9.07;;;4.57;;
12654;SDS011;6392;44.644;11.448;2023-12-20T07:03:30;10.17;;;5.10;;
12654;SDS011;6392;44.644;11.448;2023-12-20T07:05:57;6.27;;;4.40;;
12654;SDS011;6392;44.644;11.448;2023-12-20T07:08:24;7.73;;;4.30;;
12654;SDS011;6392;44.644;11.448;2023-12-20T07:10:51;8.30;;;4.87;;
12654;SDS011;6392;44.644;11.448;2023-12-20T07:13:19;8.70;;;5.20;;
12654;SDS011;6392;44.644;11.448;2023-12-20T07:15:48;10.07;;;4.67;;
12654;SDS011;6392;44.644;11.448;2023-12-20T07:18:15;8.63;;;4.93;;
12654;SDS011;6392;44.644;11.448;2023-12-20T07:20:43;8.63;;;5.07;;
12654;SDS011;6392;44.644;11.448;2023-12-20T07:23:10;8.57;;;5.77;;
12654;SDS011;6392;44.644;11.448;2023-12-20T07:25:37;8.67;;;5.43;;
12654;SDS011;6392;44.644;11.448;2023-12-20T07:28:04;8.40;;;5.00;;
12654;SDS011;6392;44.644;11.448;2023-12-20T07:30:32;6.93;;;4.77;;
12654;SDS011;6392;44.644;11.448;2023-12-20T07:33:00;7.93;;;5.17;;
12654;SDS011;6392;44.644;11.448;2023-12-20T07:35:27;9.27;;;6.13;;
12654;SDS011;6392;44.644;11.448;2023-12-20T07:37:54;10.40;;;5.40;;
12654;SDS011;6392;44.644;11.448;2023-12-20T07:40:22;7.30;;;4.73;;
12654;SDS011;6392;44.644;11.448;2023-12-20T07:42:49;10.07;;;5.30;;
12654;SDS011;6392;44.644;11.448;2023-12-20T07:45:17;8.13;;;5.70;;
12654;SDS011;6392;44.644;11.448;2023-12-20T07:47:44;12.47;;;6.03;;
12654;SDS011;6392;44.644;11.448;2023-12-20T07:50:12;13.77;;;5.90;;
12654;SDS011;6392;44.644;11.448;2023-12-20T07:52:39;10.90;;;6.40;;
12654;SDS011;6392;44.644;11.448;2023-12-20T07:55:06;11.73;;;6.73;;
12654;SDS011;6392;44.644;11.448;2023-12-20T07:57:34;12.73;;;7.33;;
12654;SDS011;6392;44.644;11.448;2023-12-20T08:00:01;13.37;;;7.27;;
12654;SDS011;6392;44.644;11.448;2023-12-20T08:02:29;12.37;;;6.70;;
12654;SDS011;6392;44.644;11.448;2023-12-20T08:04:56;14.47;;;6.37;;
12654;SDS011;6392;44.644;11.448;2023-12-20T08:07:24;10.30;;;6.53;;
12654;SDS011;6392;44.644;11.448;2023-12-20T08:09:51;9.50;;;6.30;;
12654;SDS011;6392;44.644;11.448;2023-12-20T08:12:20;10.23;;;5.90;;
12654;SDS011;6392;44.644;11.448;2023-12-20T08:14:47;9.77;;;6.77;;
12654;SDS011;6392;44.644;11.448;2023-12-20T08:17:14;12.67;;;6.73;;
12654;SDS011;6392;44.644;11.448;2023-12-20T08:19:41;10.33;;;7.10;;
12654;SDS011;6392;44.644;11.448;2023-12-20T08:22:08;13.50;;;7.20;;
12654;SDS011;6392;44.644;11.448;2023-12-20T08:24:36;11.40;;;6.77;;
12654;SDS011;6392;44.644;11.448;2023-12-20T08:27:03;9.07;;;6.33;;
12654;SDS011;6392;44.644;11.448;2023-12-20T08:29:31;11.00;;;6.47;;
12654;SDS011;6392;44.644;11.448;2023-12-20T08:31:57;11.97;;;6.47;;
12654;SDS011;6392;44.644;11.448;2023-12-20T08:34:24;10.90;;;6.73;;
12654;SDS011;6392;44.644;11.448;2023-12-20T08:36:51;10.57;;;5.73;;
12654;SDS011;6392;44.644;11.448;2023-12-20T08:39:18;10.40;;;6.53;;
12654;SDS011;6392;44.644;11.448;2023-12-20T08:41:47;11.67;;;7.37;;
12654;SDS011;6392;44.644;11.448;2023-12-20T08:44:14;12.23;;;7.50;;
12654;SDS011;6392;44.644;11.448;2023-12-20T08:46:41;11.30;;;7.30;;
12654;SDS011;6392;44.644;11.448;2023-12-20T08:49:08;12.07;;;7.47;;
12654;SDS011;6392;44.644;11.448;2023-12-20T08:51:35;13.93;;;7.73;;
12654;SDS011;6392;44.644;11.448;2023-12-20T08:54:05;11.67;;;7.57;;
12654;SDS011;6392;44.644;11.448;2023-12-20T08:56:33;14.20;;;9.77;;
12654;SDS011;6392;44.644;11.448;2023-12-20T08:59:02;14.93;;;9.20;;
12654;SDS011;6392;44.644;11.448;2023-12-20T09:01:29;14.60;;;9.40;;
12654;SDS011;6392;44.644;11.448;2023-12-20T09:03:56;14.40;;;9.13;;
12654;SDS011;6392;44.644;11.448;2023-12-20T09:06:23;12.73;;;9.00;;
12654;SDS011;6392;44.644;11.448;2023-12-20T09:08:51;16.33;;;9.87;;
12654;SDS011;6392;44.644;11.448;2023-12-20T09:11:18;15.50;;;10.10;;
12654;SDS011;6392;44.644;11.448;2023-12-20T09:13:45;15.37;;;9.97;;
12654;SDS011;6392;44.644;11.448;2023-12-20T09:16:13;18.57;;;11.40;;
12654;SDS011;6392;44.644;11.448;2023-12-20T09:18:41;15.67;;;10.27;;
12654;SDS011;6392;44.644;11.448;2023-12-20T09:21:08;19.10;;;12.20;;
12654;SDS011;6392;44.644;11.448;2023-12-20T09:23:35;14.80;;;10.93;;
12654;SDS011;6392;44.644;11.448;2023-12-20T09:26:03;20.83;;;11.67;;
12654;SDS011;6392;44.644;11.448;2023-12-20T09:28:30;18.73;;;11.63;;
12654;SDS011;6392;44.644;11.448;2023-12-20T09:31:01;18.33;;;11.40;;
12654;SDS011;6392;44.644;11.448;2023-12-20T09:33:31;16.07;;;11.70;;
12654;SDS011;6392;44.644;11.448;2023-12-20T09:35:58;17.27;;;11.80;;
12654;SDS011;6392;44.644;11.448;2023-12-20T09:38:25;19.07;;;12.63;;
12654;SDS011;6392;44.644;11.448;2023-12-20T09:40:52;21.87;;;13.33;;
12654;SDS011;6392;44.644;11.448;2023-12-20T09:43:21;20.03;;;13.60;;
12654;SDS011;6392;44.644;11.448;2023-12-20T09:45:52;20.73;;;14.30;;
12654;SDS011;6392;44.644;11.448;2023-12-20T09:48:20;23.80;;;13.13;;
12654;SDS011;6392;44.644;11.448;2023-12-20T09:50:48;21.33;;;13.77;;
12654;SDS011;6392;44.644;11.448;2023-12-20T09:53:15;19.83;;;13.00;;
12654;SDS011;6392;44.644;11.448;2023-12-20T09:55:44;20.27;;;13.27;;
12654;SDS011;6392;44.644;11.448;2023-12-20T09:58:11;22.87;;;13.27;;
12654;SDS011;6392;44.644;11.448;2023-12-20T10:00:38;21.33;;;12.77;;
12654;SDS011;6392;44.644;11.448;2023-12-20T10:03:06;23.47;;;14.40;;
12654;SDS011;6392;44.644;11.448;2023-12-20T10:05:33;22.70;;;13.73;;
12654;SDS011;6392;44.644;11.448;2023-12-20T10:08:02;24.03;;;15.13;;
12654;SDS011;6392;44.644;11.448;2023-12-20T10:10:30;25.23;;;15.33;;
12654;SDS011;6392;44.644;11.448;2023-12-20T10:13:03;20.07;;;15.20;;
12654;SDS011;6392;44.644;11.448;2023-12-20T10:15:32;28.07;;;16.87;;
12654;SDS011;6392;44.644;11.448;2023-12-20T10:17:59;24.17;;;16.83;;
12654;SDS011;6392;44.644;11.448;2023-12-20T10:20:27;27.47;;;18.23;;
12654;SDS011;6392;44.644;11.448;2023-12-20T10:22:55;27.90;;;18.67;;
12654;SDS011;6392;44.644;11.448;2023-12-20T10:25:24;27.03;;;18.47;;
12654;SDS011;6392;44.644;11.448;2023-12-20T10:30:35;29.07;;;20.37;;
12654;SDS011;6392;44.644;11.448;2023-12-20T10:33:02;26.43;;;18.17;;
12654;SDS011;6392;44.644;11.448;2023-12-20T10:35:31;25.93;;;18.93;;
12654;SDS011;6392;44.644;11.448;2023-12-20T10:37:58;23.50;;;18.17;;
12654;SDS011;6392;44.644;11.448;2023-12-20T10:40:32;22.77;;;16.17;;
12654;SDS011;6392;44.644;11.448;2023-12-20T10:43:02;24.73;;;17.07;;
12654;SDS011;6392;44.644;11.448;2023-12-20T10:45:30;25.87;;;17.17;;
12654;SDS011;6392;44.644;11.448;2023-12-20T10:47:57;22.00;;;16.60;;
12654;SDS011;6392;44.644;11.448;2023-12-20T10:50:26;18.17;;;14.60;;
12654;SDS011;6392;44.644;11.448;2023-12-20T10:52:55;25.87;;;16.27;;
12654;SDS011;6392;44.644;11.448;2023-12-20T10:55:22;22.03;;;15.30;;
12654;SDS011;6392;44.644;11.448;2023-12-20T10:57:50;26.07;;;16.47;;
12654;SDS011;6392;44.644;11.448;2023-12-20T11:00:18;21.87;;;15.30;;
12654;SDS011;6392;44.644;11.448;2023-12-20T11:02:47;23.60;;;16.37;;
12654;SDS011;6392;44.644;11.448;2023-12-20T11:05:19;24.77;;;15.90;;
12654;SDS011;6392;44.644;11.448;2023-12-20T11:07:55;23.30;;;15.57;;
12654;SDS011;6392;44.644;11.448;2023-12-20T11:10:29;23.40;;;13.63;;
12654;SDS011;6392;44.644;11.448;2023-12-20T11:13:01;22.57;;;14.83;;
12654;SDS011;6392;44.644;11.448;2023-12-20T11:15:35;19.43;;;14.13;;
12654;SDS011;6392;44.644;11.448;2023-12-20T11:18:03;20.17;;;14.97;;
12654;SDS011;6392;44.644;11.448;2023-12-20T11:20:35;20.20;;;13.93;;
12654;SDS011;6392;44.644;11.448;2023-12-20T11:23:03;22.10;;;14.57;;
12654;SDS011;6392;44.644;11.448;2023-12-20T11:25:35;22.10;;;15.50;;
12654;SDS011;6392;44.644;11.448;2023-12-20T11:28:22;22.43;;;15.30;;
12654;SDS011;6392;44.644;11.448;2023-12-20T11:30:50;23.83;;;15.70;;
12654;SDS011;6392;44.644;11.448;2023-12-20T11:33:21;22.77;;;16.10;;
12654;SDS011;6392;44.644;11.448;2023-12-20T11:35:48;22.93;;;17.20;;
12654;SDS011;6392;44.644;11.448;2023-12-20T11:38:16;26.93;;;16.87;;
12654;SDS011;6392;44.644;11.448;2023-12-20T11:40:43;27.83;;;16.83;;
12654;SDS011;6392;44.644;11.448;2023-12-20T11:43:10;27.67;;;18.53;;
12654;SDS011;6392;44.644;11.448;2023-12-20T11:45:38;26.37;;;18.13;;
12654;SDS011;6392;44.644;11.448;2023-12-20T11:48:16;26.50;;;17.93;;
12654;SDS011;6392;44.644;11.448;2023-12-20T11:50:44;30.27;;;18.90;;
12654;SDS011;6392;44.644;11.448;2023-12-20T11:53:11;29.60;;;18.13;;
12654;SDS011;6392;44.644;11.448;2023-12-20T11:55:38;25.10;;;18.83;;
12654;SDS011;6392;44.644;11.448;2023-12-20T11:58:05;26.63;;;18.97;;
12654;SDS011;6392;44.644;11.448;2023-12-20T12:00:34;28.50;;;19.23;;
12654;SDS011;6392;44.644;11.448;2023-12-20T12:03:03;30.13;;;20.23;;
12654;SDS011;6392;44.644;11.448;2023-12-20T12:05:30;26.57;;;19.83;;
12654;SDS011;6392;44.644;11.448;2023-12-20T12:07:58;26.33;;;19.63;;
12654;SDS011;6392;44.644;11.448;2023-12-20T12:10:25;29.63;;;20.73;;
12654;SDS011;6392;44.644;11.448;2023-12-20T12:12:52;27.40;;;20.30;;
12654;SDS011;6392;44.644;11.448;2023-12-20T12:15:19;30.27;;;20.43;;
12654;SDS011;6392;44.644;11.448;2023-12-20T12:17:52;31.87;;;19.93;;
12654;SDS011;6392;44.644;11.448;2023-12-20T12:20:22;26.30;;;19.00;;
12654;SDS011;6392;44.644;11.448;2023-12-20T12:22:57;29.40;;;19.53;;
12654;SDS011;6392;44.644;11.448;2023-12-20T12:25:25;28.07;;;18.60;;
12654;SDS011;6392;44.644;11.448;2023-12-20T12:27:52;32.53;;;21.07;;
12654;SDS011;6392;44.644;11.448;2023-12-20T12:30:19;27.40;;;19.40;;
12654;SDS011;6392;44.644;11.448;2023-12-20T12:32:47;29.63;;;19.00;;
12654;SDS011;6392;44.644;11.448;2023-12-20T12:35:14;26.40;;;19.53;;
12654;SDS011;6392;44.644;11.448;2023-12-20T12:37:42;29.77;;;20.53;;
12654;SDS011;6392;44.644;11.448;2023-12-20T12:40:10;27.73;;;17.67;;
12654;SDS011;6392;44.644;11.448;2023-12-20T12:42:38;27.77;;;18.83;;
12654;SDS011;6392;44.644;11.448;2023-12-20T12:45:06;29.53;;;17.30;;
12654;SDS011;6392;44.644;11.448;2023-12-20T12:47:33;28.30;;;19.20;;
12654;SDS011;6392;44.644;11.448;2023-12-20T12:50:01;28.27;;;19.60;;
12654;SDS011;6392;44.644;11.448;2023-12-20T12:52:28;27.60;;;19.23;;
12654;SDS011;6392;44.644;11.448;2023-12-20T12:54:58;26.73;;;18.90;;
12654;SDS011;6392;44.644;11.448;2023-12-20T12:57:25;25.87;;;19.23;;
12654;SDS011;6392;44.644;11.448;2023-12-20T12:59:52;24.50;;;18.13;;
12654;SDS011;6392;44.644;11.448;2023-12-20T13:02:19;28.13;;;19.03;;
12654;SDS011;6392;44.644;11.448;2023-12-20T13:04:46;27.33;;;19.10;;
12654;SDS011;6392;44.644;11.448;2023-12-20T13:07:13;26.10;;;18.47;;
12654;SDS011;6392;44.644;11.448;2023-12-20T13:09:40;24.07;;;18.00;;
12654;SDS011;6392;44.644;11.448;2023-12-20T13:12:09;30.23;;;19.67;;
12654;SDS011;6392;44.644;11.448;2023-12-20T13:14:36;27.60;;;18.80;;
12654;SDS011;6392;44.644;11.448;2023-12-20T13:17:03;26.13;;;17.73;;
12654;SDS011;6392;44.644;11.448;2023-12-20T13:19:31;25.90;;;18.70;;
12654;SDS011;6392;44.644;11.448;2023-12-20T13:21:58;28.83;;;19.77;;
12654;SDS011;6392;44.644;11.448;2023-12-20T13:24:25;27.60;;;17.90;;
12654;SDS011;6392;44.644;11.448;2023-12-20T13:26:52;26.77;;;18.27;;
12654;SDS011;6392;44.644;11.448;2023-12-20T13:29:21;24.63;;;18.73;;
12654;SDS011;6392;44.644;11.448;2023-12-20T13:31:48;23.70;;;18.40;;
12654;SDS011;6392;44.644;11.448;2023-12-20T13:34:15;25.07;;;18.80;;
12654;SDS011;6392;44.644;11.448;2023-12-20T13:36:43;25.47;;;17.70;;
12654;SDS011;6392;44.644;11.448;2023-12-20T13:39:12;25.77;;;18.67;;
12654;SDS011;6392;44.644;11.448;2023-12-20T13:41:40;26.57;;;18.13;;
12654;SDS011;6392;44.644;11.448;2023-12-20T13:44:07;24.33;;;18.77;;
12654;SDS011;6392;44.644;11.448;2023-12-20T13:46:35;25.43;;;19.33;;
12654;SDS011;6392;44.644;11.448;2023-12-20T13:49:02;28.80;;;18.80;;
12654;SDS011;6392;44.644;11.448;2023-12-20T13:51:30;26.70;;;19.03;;
12654;SDS011;6392;44.644;11.448;2023-12-20T13:53:57;29.83;;;19.90;;
12654;SDS011;6392;44.644;11.448;2023-12-20T13:56:24;29.03;;;20.40;;
12654;SDS011;6392;44.644;11.448;2023-12-20T13:58:51;27.87;;;20.33;;
12654;SDS011;6392;44.644;11.448;2023-12-20T14:01:18;30.40;;;20.50;;
12654;SDS011;6392;44.644;11.448;2023-12-20T14:03:47;30.77;;;20.30;;
12654;SDS011;6392;44.644;11.448;2023-12-20T14:06:15;30.27;;;22.30;;
12654;SDS011;6392;44.644;11.448;2023-12-20T14:08:43;31.50;;;23.20;;
12654;SDS011;6392;44.644;11.448;2023-12-20T14:11:10;31.43;;;22.07;;
12654;SDS011;6392;44.644;11.448;2023-12-20T14:13:37;31.30;;;21.50;;
12654;SDS011;6392;44.644;11.448;2023-12-20T14:16:04;31.77;;;22.90;;
12654;SDS011;6392;44.644;11.448;2023-12-20T14:18:32;31.30;;;22.97;;
12654;SDS011;6392;44.644;11.448;2023-12-20T14:21:00;34.20;;;23.50;;
12654;SDS011;6392;44.644;11.448;2023-12-20T14:23:27;32.03;;;23.73;;
12654;SDS011;6392;44.644;11.448;2023-12-20T14:25:54;36.90;;;24.10;;
12654;SDS011;6392;44.644;11.448;2023-12-20T14:28:23;34.33;;;23.87;;
12654;SDS011;6392;44.644;11.448;2023-12-20T14:30:50;33.53;;;24.70;;
12654;SDS011;6392;44.644;11.448;2023-12-20T14:33:17;33.30;;;24.40;;
12654;SDS011;6392;44.644;11.448;2023-12-20T14:35:46;36.47;;;25.63;;
12654;SDS011;6392;44.644;11.448;2023-12-20T14:38:15;36.10;;;24.50;;